Aviation Digital Data Service (ADDS)

Output produced by METARs form (0418 UTC 19 February 2019)
found at http://www.aviationweather.gov/metar/data/
 
METAR text: EBFN 190355Z AUTO 23007KT 3600 BR NCD 04/04 Q1018 YLO
Conditions at: EBFN (KOKSIJDE (BEL-AF, BE) observed 0355 UTC 19 February 2019
Temperature: 4.0°C (39°F)
Dewpoint: 4.0°C (39°F) [RH = 100%]
Pressure (altimeter): 30.06 inches Hg (1018.0 mb)
Winds: from the SW (230 degrees) at 8 MPH (7 knots; 3.6 m/s)
Visibility: 2.24 miles (3.60 km)
Ceiling: at least 12,000 feet AGL
Clouds: sky clear below 12,000 feet AGL
Weather: BR  (mist)

METAR text: EBFN 190353Z AUTO 23007KT 3600 BR NCD 04/04 Q1018 YLO
Conditions at: EBFN (KOKSIJDE (BEL-AF, BE) observed 0353 UTC 19 February 2019
Temperature: 4.0°C (39°F)
Dewpoint: 4.0°C (39°F) [RH = 100%]
Pressure (altimeter): 30.06 inches Hg (1018.0 mb)
Winds: from the SW (230 degrees) at 8 MPH (7 knots; 3.6 m/s)
Visibility: 2.24 miles (3.60 km)
Ceiling: at least 12,000 feet AGL
Clouds: sky clear below 12,000 feet AGL
Weather: BR  (mist)

METAR text: EBFN 190351Z AUTO 23007KT 4100 BR NCD 05/04 Q1018 GRN
Conditions at: EBFN (KOKSIJDE (BEL-AF, BE) observed 0351 UTC 19 February 2019
Temperature: 5.0°C (41°F)
Dewpoint: 4.0°C (39°F) [RH = 93%]
Pressure (altimeter): 30.06 inches Hg (1018.0 mb)
Winds: from the SW (230 degrees) at 8 MPH (7 knots; 3.6 m/s)
Visibility: 2.55 miles (4.10 km)
Ceiling: at least 12,000 feet AGL
Clouds: sky clear below 12,000 feet AGL
Weather: BR  (mist)

METAR text: EBFN 190333Z AUTO 23007KT 3500 BR NCD 04/04 Q1018 YLO
Conditions at: EBFN (KOKSIJDE (BEL-AF, BE) observed 0333 UTC 19 February 2019
Temperature: 4.0°C (39°F)
Dewpoint: 4.0°C (39°F) [RH = 100%]
Pressure (altimeter): 30.06 inches Hg (1018.0 mb)
Winds: from the SW (230 degrees) at 8 MPH (7 knots; 3.6 m/s)
Visibility: 2.17 miles (3.49 km)
Ceiling: at least 12,000 feet AGL
Clouds: sky clear below 12,000 feet AGL
Weather: BR  (mist)

METAR text: EBFN 190325Z AUTO 23006KT 4000 BR NCD 05/04 Q1018 GRN
Conditions at: EBFN (KOKSIJDE (BEL-AF, BE) observed 0325 UTC 19 February 2019
Temperature: 5.0°C (41°F)
Dewpoint: 4.0°C (39°F) [RH = 93%]
Pressure (altimeter): 30.06 inches Hg (1018.0 mb)
Winds: from the SW (230 degrees) at 7 MPH (6 knots; 3.1 m/s)
Visibility: 2.49 miles (4.01 km)
Ceiling: at least 12,000 feet AGL
Clouds: sky clear below 12,000 feet AGL
Weather: BR  (mist)

METAR text: EBFN 190324Z AUTO 23006KT 3600 BR NCD 05/04 Q1018 YLO
Conditions at: EBFN (KOKSIJDE (BEL-AF, BE) observed 0324 UTC 19 February 2019
Temperature: 5.0°C (41°F)
Dewpoint: 4.0°C (39°F) [RH = 93%]
Pressure (altimeter): 30.06 inches Hg (1018.0 mb)
Winds: from the SW (230 degrees) at 7 MPH (6 knots; 3.1 m/s)
Visibility: 2.24 miles (3.60 km)
Ceiling: at least 12,000 feet AGL
Clouds: sky clear below 12,000 feet AGL
Weather: BR  (mist)

METAR text: EBFN 190255Z AUTO 23005KT 4600 BR FEW008/// 05/04 Q1018 GRN
Conditions at: EBFN (KOKSIJDE (BEL-AF, BE) observed 0255 UTC 19 February 2019
Temperature: 5.0°C (41°F)
Dewpoint: 4.0°C (39°F) [RH = 93%]
Pressure (altimeter): 30.06 inches Hg (1018.0 mb)
Winds: from the SW (230 degrees) at 6 MPH (5 knots; 2.6 m/s)
Visibility: 2.86 miles (4.60 km)
Ceiling: at least 12,000 feet AGL
Clouds: few clouds at 800 feet AGL
Weather: BR  (mist)

METAR text: EBFN 190236Z AUTO 25005KT 4800 SCT008/// SCT230/// 05/05 Q1017 GRN
Conditions at: EBFN (KOKSIJDE (BEL-AF, BE) observed 0236 UTC 19 February 2019
Temperature: 5.0°C (41°F)
Dewpoint: 5.0°C (41°F) [RH = 100%]
Pressure (altimeter): 30.03 inches Hg (1017.0 mb)
Winds: from the WSW (250 degrees) at 6 MPH (5 knots; 2.6 m/s)
Visibility: 2.98 miles (4.80 km)
Ceiling: at least 12,000 feet AGL
Clouds: scattered clouds at 800 feet AGL
scattered clouds at 23000 feet AGL
Weather: no significant weather observed at this time

METAR text: EBFN 190225Z AUTO 25005KT 7000 FEW180/// SCT230/// 06/05 Q1017 WHT
Conditions at: EBFN (KOKSIJDE (BEL-AF, BE) observed 0225 UTC 19 February 2019
Temperature: 6.0°C (43°F)
Dewpoint: 5.0°C (41°F) [RH = 93%]
Pressure (altimeter): 30.03 inches Hg (1017.0 mb)
Winds: from the WSW (250 degrees) at 6 MPH (5 knots; 2.6 m/s)
Visibility: 4 miles ( 7 km)
Ceiling: at least 12,000 feet AGL
Clouds: few clouds at 18000 feet AGL
scattered clouds at 23000 feet AGL
Weather: no significant weather observed at this time

METAR text: EBFN 190155Z AUTO 22006KT 7000 OVC160/// 06/05 Q1017 WHT
Conditions at: EBFN (KOKSIJDE (BEL-AF, BE) observed 0155 UTC 19 February 2019
Temperature: 6.0°C (43°F)
Dewpoint: 5.0°C (41°F) [RH = 93%]
Pressure (altimeter): 30.03 inches Hg (1017.0 mb)
Winds: from the SW (220 degrees) at 7 MPH (6 knots; 3.1 m/s)
Visibility: 4 miles ( 7 km)
Ceiling: 16000 feet AGL
Clouds: overcast cloud deck at 16000 feet AGL
Weather: no significant weather observed at this time

METAR text: EBFN 190136Z AUTO 21007KT 7000 FEW012/// OVC150/// 06/05 Q1017 WHT
Conditions at: EBFN (KOKSIJDE (BEL-AF, BE) observed 0136 UTC 19 February 2019
Temperature: 6.0°C (43°F)
Dewpoint: 5.0°C (41°F) [RH = 93%]
Pressure (altimeter): 30.03 inches Hg (1017.0 mb)
Winds: from the SSW (210 degrees) at 8 MPH (7 knots; 3.6 m/s)
Visibility: 4 miles ( 7 km)
Ceiling: 15000 feet AGL
Clouds: few clouds at 1200 feet AGL
overcast cloud deck at 15000 feet AGL
Weather: no significant weather observed at this time

METAR text: EBFN 190125Z AUTO 22006KT 8000 FEW012/// BKN150/// 06/05 Q1017 BLU
Conditions at: EBFN (KOKSIJDE (BEL-AF, BE) observed 0125 UTC 19 February 2019
Temperature: 6.0°C (43°F)
Dewpoint: 5.0°C (41°F) [RH = 93%]
Pressure (altimeter): 30.03 inches Hg (1017.0 mb)
Winds: from the SW (220 degrees) at 7 MPH (6 knots; 3.1 m/s)
Visibility: 5 miles ( 8 km)
Ceiling: 15000 feet AGL
Clouds: few clouds at 1200 feet AGL
broken clouds at 15000 feet AGL
Weather: no significant weather observed at this time

METAR text: EBFN 190055Z AUTO 24007KT 9000 FEW015/// SCT034/// BKN150/// 07/06 Q1017 BLU
Conditions at: EBFN (KOKSIJDE (BEL-AF, BE) observed 0055 UTC 19 February 2019
Temperature: 7.0°C (45°F)
Dewpoint: 6.0°C (43°F) [RH = 93%]
Pressure (altimeter): 30.03 inches Hg (1017.0 mb)
Winds: from the WSW (240 degrees) at 8 MPH (7 knots; 3.6 m/s)
Visibility: 6 miles ( 9 km)
Ceiling: 15000 feet AGL
Clouds: few clouds at 1500 feet AGL
scattered clouds at 3400 feet AGL
broken clouds at 15000 feet AGL
Weather: no significant weather observed at this time

METAR text: EBFN 190041Z AUTO 24007KT 9999 SCT015/// BKN035/// BKN150/// 07/06 Q1017 WHT
Conditions at: EBFN (KOKSIJDE (BEL-AF, BE) observed 0041 UTC 19 February 2019
Temperature: 7.0°C (45°F)
Dewpoint: 6.0°C (43°F) [RH = 93%]
Pressure (altimeter): 30.03 inches Hg (1017.0 mb)
Winds: from the WSW (240 degrees) at 8 MPH (7 knots; 3.6 m/s)
Visibility: 6 or more miles (10+ km)
Ceiling: 3500 feet AGL
Clouds: scattered clouds at 1500 feet AGL
broken clouds at 3500 feet AGL
broken clouds at 15000 feet AGL
Weather: no significant weather observed at this time

METAR text: EBFN 190025Z AUTO 24008KT 9999 SCT035/// BKN140/// 07/06 Q1017 BLU
Conditions at: EBFN (KOKSIJDE (BEL-AF, BE) observed 0025 UTC 19 February 2019
Temperature: 7.0°C (45°F)
Dewpoint: 6.0°C (43°F) [RH = 93%]
Pressure (altimeter): 30.03 inches Hg (1017.0 mb)
Winds: from the WSW (240 degrees) at 9 MPH (8 knots; 4.1 m/s)
Visibility: 6 or more miles (10+ km)
Ceiling: 14000 feet AGL
Clouds: scattered clouds at 3500 feet AGL
broken clouds at 14000 feet AGL
Weather: no significant weather observed at this time

METAR text: EBFN 182355Z AUTO 24008KT 9999 FEW014/// BKN120/// 07/05 Q1017 BLU
Conditions at: EBFN (KOKSIJDE (BEL-AF, BE) observed 2355 UTC 18 February 2019
Temperature: 7.0°C (45°F)
Dewpoint: 5.0°C (41°F) [RH = 87%]
Pressure (altimeter): 30.03 inches Hg (1017.0 mb)
Winds: from the WSW (240 degrees) at 9 MPH (8 knots; 4.1 m/s)
Visibility: 6 or more miles (10+ km)
Ceiling: 12000 feet AGL
Clouds: few clouds at 1400 feet AGL
broken clouds at 12000 feet AGL
Weather: no significant weather observed at this time

METAR text: EBFN 182325Z AUTO 24009KT 9999 FEW016/// BKN120/// 07/05 Q1017 BLU
Conditions at: EBFN (KOKSIJDE (BEL-AF, BE) observed 2325 UTC 18 February 2019
Temperature: 7.0°C (45°F)
Dewpoint: 5.0°C (41°F) [RH = 87%]
Pressure (altimeter): 30.03 inches Hg (1017.0 mb)
Winds: from the WSW (240 degrees) at 10 MPH (9 knots; 4.6 m/s)
Visibility: 6 or more miles (10+ km)
Ceiling: 12000 feet AGL
Clouds: few clouds at 1600 feet AGL
broken clouds at 12000 feet AGL
Weather: no significant weather observed at this time

METAR text: EBFN 182255Z AUTO 25008KT 9999 OVC110/// 07/05 Q1017 BLU
Conditions at: EBFN (KOKSIJDE (BEL-AF, BE) observed 2255 UTC 18 February 2019
Temperature: 7.0°C (45°F)
Dewpoint: 5.0°C (41°F) [RH = 87%]
Pressure (altimeter): 30.03 inches Hg (1017.0 mb)
Winds: from the WSW (250 degrees) at 9 MPH (8 knots; 4.1 m/s)
Visibility: 6 or more miles (10+ km)
Ceiling: 11000 feet AGL
Clouds: overcast cloud deck at 11000 feet AGL
Weather: no significant weather observed at this time

METAR text: EBFN 182225Z AUTO 25009KT 9999 BKN100/// 07/05 Q1017 BLU
Conditions at: EBFN (KOKSIJDE (BEL-AF, BE) observed 2225 UTC 18 February 2019
Temperature: 7.0°C (45°F)
Dewpoint: 5.0°C (41°F) [RH = 87%]
Pressure (altimeter): 30.03 inches Hg (1017.0 mb)
Winds: from the WSW (250 degrees) at 10 MPH (9 knots; 4.6 m/s)
Visibility: 6 or more miles (10+ km)
Ceiling: 10000 feet AGL
Clouds: broken clouds at 10000 feet AGL
Weather: no significant weather observed at this time

METAR text: EBFN 182155Z AUTO 23006KT 9999 OVC086/// 08/05 Q1017 BLU
Conditions at: EBFN (KOKSIJDE (BEL-AF, BE) observed 2155 UTC 18 February 2019
Temperature: 8.0°C (46°F)
Dewpoint: 5.0°C (41°F) [RH = 81%]
Pressure (altimeter): 30.03 inches Hg (1017.0 mb)
Winds: from the SW (230 degrees) at 7 MPH (6 knots; 3.1 m/s)
Visibility: 6 or more miles (10+ km)
Ceiling: 8600 feet AGL
Clouds: overcast cloud deck at 8600 feet AGL
Weather: no significant weather observed at this time

METAR text: EBFN 182125Z AUTO 26007KT 9999 -DZ OVC049/// 08/05 Q1016 BLU
Conditions at: EBFN (KOKSIJDE (BEL-AF, BE) observed 2125 UTC 18 February 2019
Temperature: 8.0°C (46°F)
Dewpoint: 5.0°C (41°F) [RH = 81%]
Pressure (altimeter): 30.00 inches Hg (1016.0 mb)
Winds: from the W (260 degrees) at 8 MPH (7 knots; 3.6 m/s)
Visibility: 6 or more miles (10+ km)
Ceiling: 4900 feet AGL
Clouds: overcast cloud deck at 4900 feet AGL
Weather: -DZ  (light drizzle)

METAR text: EBFN 182055Z AUTO 27009KT 9999 -DZ OVC046/// 08/05 Q1016 BLU
Conditions at: EBFN (KOKSIJDE (BEL-AF, BE) observed 2055 UTC 18 February 2019
Temperature: 8.0°C (46°F)
Dewpoint: 5.0°C (41°F) [RH = 81%]
Pressure (altimeter): 30.00 inches Hg (1016.0 mb)
Winds: from the W (270 degrees) at 10 MPH (9 knots; 4.6 m/s)
Visibility: 6 or more miles (10+ km)
Ceiling: 4600 feet AGL
Clouds: overcast cloud deck at 4600 feet AGL
Weather: -DZ  (light drizzle)

METAR text: EBFN 182025Z AUTO 28010KT 9999 BKN028/// OVC084/// 08/06 Q1016 BLU
Conditions at: EBFN (KOKSIJDE (BEL-AF, BE) observed 2025 UTC 18 February 2019
Temperature: 8.0°C (46°F)
Dewpoint: 6.0°C (43°F) [RH = 87%]
Pressure (altimeter): 30.00 inches Hg (1016.0 mb)
Winds: from the W (280 degrees) at 12 MPH (10 knots; 5.1 m/s)
Visibility: 6 or more miles (10+ km)
Ceiling: 2800 feet AGL
Clouds: broken clouds at 2800 feet AGL
overcast cloud deck at 8400 feet AGL
Weather: no significant weather observed at this time

METAR text: EBFN 181955Z AUTO 27015KT 9999 -DZ OVC040/// 09/06 Q1016 BLU
Conditions at: EBFN (KOKSIJDE (BEL-AF, BE) observed 1955 UTC 18 February 2019
Temperature: 9.0°C (48°F)
Dewpoint: 6.0°C (43°F) [RH = 81%]
Pressure (altimeter): 30.00 inches Hg (1016.0 mb)
Winds: from the W (270 degrees) at 17 MPH (15 knots; 7.7 m/s)
Visibility: 6 or more miles (10+ km)
Ceiling: 4000 feet AGL
Clouds: overcast cloud deck at 4000 feet AGL
Weather: -DZ  (light drizzle)

METAR text: EBFN 181925Z 25006KT 8000 BKN030 BKN050 09/07 Q1016 BLU BLU TEMPO WHT
Conditions at: EBFN (KOKSIJDE (BEL-AF, BE) observed 1925 UTC 18 February 2019
Temperature: 9.0°C (48°F)
Dewpoint: 7.0°C (45°F) [RH = 87%]
Pressure (altimeter): 30.00 inches Hg (1016.0 mb)
Winds: from the WSW (250 degrees) at 7 MPH (6 knots; 3.1 m/s)
Visibility: 5 miles ( 8 km)
Ceiling: 3000 feet AGL
Clouds: broken clouds at 3000 feet AGL
broken clouds at 5000 feet AGL
Weather: no significant weather observed at this time

METAR text: EBFN 181855Z 24005KT 8000 FEW022 BKN050 09/07 Q1015 BLU BLU TEMPO WHT
Conditions at: EBFN (KOKSIJDE (BEL-AF, BE) observed 1855 UTC 18 February 2019
Temperature: 9.0°C (48°F)
Dewpoint: 7.0°C (45°F) [RH = 87%]
Pressure (altimeter): 29.97 inches Hg (1015.0 mb)
Winds: from the WSW (240 degrees) at 6 MPH (5 knots; 2.6 m/s)
Visibility: 5 miles ( 8 km)
Ceiling: 5000 feet AGL
Clouds: few clouds at 2200 feet AGL
broken clouds at 5000 feet AGL
Weather: no significant weather observed at this time

METAR text: EBFN 181825Z 23004KT 8000 FEW022 BKN050 09/07 Q1015 BLU BLU TEMPO WHT
Conditions at: EBFN (KOKSIJDE (BEL-AF, BE) observed 1825 UTC 18 February 2019
Temperature: 9.0°C (48°F)
Dewpoint: 7.0°C (45°F) [RH = 87%]
Pressure (altimeter): 29.97 inches Hg (1015.0 mb)
Winds: from the SW (230 degrees) at 5 MPH (4 knots; 2.1 m/s)
Visibility: 5 miles ( 8 km)
Ceiling: 5000 feet AGL
Clouds: few clouds at 2200 feet AGL
broken clouds at 5000 feet AGL
Weather: no significant weather observed at this time

METAR text: EBFN 181823Z 23004KT 8000 FEW022 BKN050 09/07 Q1015 BLU BLU TEMPO WHT
Conditions at: EBFN (KOKSIJDE (BEL-AF, BE) observed 1823 UTC 18 February 2019
Temperature: 9.0°C (48°F)
Dewpoint: 7.0°C (45°F) [RH = 87%]
Pressure (altimeter): 29.97 inches Hg (1015.0 mb)
Winds: from the SW (230 degrees) at 5 MPH (4 knots; 2.1 m/s)
Visibility: 5 miles ( 8 km)
Ceiling: 5000 feet AGL
Clouds: few clouds at 2200 feet AGL
broken clouds at 5000 feet AGL
Weather: no significant weather observed at this time

METAR text: EBFN 181755Z 26004KT 8000 SCT022 BKN050 09/07 Q1015 WHT WHT
Conditions at: EBFN (KOKSIJDE (BEL-AF, BE) observed 1755 UTC 18 February 2019
Temperature: 9.0°C (48°F)
Dewpoint: 7.0°C (45°F) [RH = 87%]
Pressure (altimeter): 29.97 inches Hg (1015.0 mb)
Winds: from the W (260 degrees) at 5 MPH (4 knots; 2.1 m/s)
Visibility: 5 miles ( 8 km)
Ceiling: 5000 feet AGL
Clouds: scattered clouds at 2200 feet AGL
broken clouds at 5000 feet AGL
Weather: no significant weather observed at this time

METAR text: EBFN 181725Z 25005KT 8000 BKN022 09/07 Q1015 WHT WHT
Conditions at: EBFN (KOKSIJDE (BEL-AF, BE) observed 1725 UTC 18 February 2019
Temperature: 9.0°C (48°F)
Dewpoint: 7.0°C (45°F) [RH = 87%]
Pressure (altimeter): 29.97 inches Hg (1015.0 mb)
Winds: from the WSW (250 degrees) at 6 MPH (5 knots; 2.6 m/s)
Visibility: 5 miles ( 8 km)
Ceiling: 2200 feet AGL
Clouds: broken clouds at 2200 feet AGL
Weather: no significant weather observed at this time

METAR text: EBFN 181707Z 27006KT 8000 SCT022 BKN220 09/07 Q1015 WHT WHT
Conditions at: EBFN (KOKSIJDE (BEL-AF, BE) observed 1707 UTC 18 February 2019
Temperature: 9.0°C (48°F)
Dewpoint: 7.0°C (45°F) [RH = 87%]
Pressure (altimeter): 29.97 inches Hg (1015.0 mb)
Winds: from the W (270 degrees) at 7 MPH (6 knots; 3.1 m/s)
Visibility: 5 miles ( 8 km)
Ceiling: 22000 feet AGL
Clouds: scattered clouds at 2200 feet AGL
broken clouds at 22000 feet AGL
Weather: no significant weather observed at this time

METAR text: EBFN 181655Z 27006KT 8000 FEW028 BKN220 09/06 Q1015 BLU BLU TEMPO WHT
Conditions at: EBFN (KOKSIJDE (BEL-AF, BE) observed 1655 UTC 18 February 2019
Temperature: 9.0°C (48°F)
Dewpoint: 6.0°C (43°F) [RH = 81%]
Pressure (altimeter): 29.97 inches Hg (1015.0 mb)
Winds: from the W (270 degrees) at 7 MPH (6 knots; 3.1 m/s)
Visibility: 5 miles ( 8 km)
Ceiling: 22000 feet AGL
Clouds: few clouds at 2800 feet AGL
broken clouds at 22000 feet AGL
Weather: no significant weather observed at this time

METAR text: EBFN 181625Z 29008KT 8000 FEW028 BKN220 09/07 Q1015 BLU BLU TEMPO WHT
Conditions at: EBFN (KOKSIJDE (BEL-AF, BE) observed 1625 UTC 18 February 2019
Temperature: 9.0°C (48°F)
Dewpoint: 7.0°C (45°F) [RH = 87%]
Pressure (altimeter): 29.97 inches Hg (1015.0 mb)
Winds: from the WNW (290 degrees) at 9 MPH (8 knots; 4.1 m/s)
Visibility: 5 miles ( 8 km)
Ceiling: 22000 feet AGL
Clouds: few clouds at 2800 feet AGL
broken clouds at 22000 feet AGL
Weather: no significant weather observed at this time

METAR text: EBFN 181555Z 30009KT 8000 BKN028 BKN220 09/07 Q1015 BLU BLU TEMPO WHT
Conditions at: EBFN (KOKSIJDE (BEL-AF, BE) observed 1555 UTC 18 February 2019
Temperature: 9.0°C (48°F)
Dewpoint: 7.0°C (45°F) [RH = 87%]
Pressure (altimeter): 29.97 inches Hg (1015.0 mb)
Winds: from the WNW (300 degrees) at 10 MPH (9 knots; 4.6 m/s)
Visibility: 5 miles ( 8 km)
Ceiling: 2800 feet AGL
Clouds: broken clouds at 2800 feet AGL
broken clouds at 22000 feet AGL
Weather: no significant weather observed at this time

METAR text: EBFN 181525Z 30010KT 9999 BKN025 BKN220 10/07 Q1015 BLU BLU TEMPO WHT
Conditions at: EBFN (KOKSIJDE (BEL-AF, BE) observed 1525 UTC 18 February 2019
Temperature: 10.0°C (50°F)
Dewpoint: 7.0°C (45°F) [RH = 82%]
Pressure (altimeter): 29.97 inches Hg (1015.0 mb)
Winds: from the WNW (300 degrees) at 12 MPH (10 knots; 5.1 m/s)
Visibility: 6 or more miles (10+ km)
Ceiling: 2500 feet AGL
Clouds: broken clouds at 2500 feet AGL
broken clouds at 22000 feet AGL
Weather: no significant weather observed at this time

METAR text: EBFN 181516Z 30010KT 9999 BKN025 BKN220 10/07 Q1015 BLU BLU TEMPO WHT
Conditions at: EBFN (KOKSIJDE (BEL-AF, BE) observed 1516 UTC 18 February 2019
Temperature: 10.0°C (50°F)
Dewpoint: 7.0°C (45°F) [RH = 82%]
Pressure (altimeter): 29.97 inches Hg (1015.0 mb)
Winds: from the WNW (300 degrees) at 12 MPH (10 knots; 5.1 m/s)
Visibility: 6 or more miles (10+ km)
Ceiling: 2500 feet AGL
Clouds: broken clouds at 2500 feet AGL
broken clouds at 22000 feet AGL
Weather: no significant weather observed at this time

METAR text: EBFN 181455Z 30010KT 9999 BKN024 BKN220 10/07 Q1015 WHT WHT TEMPO BLU
Conditions at: EBFN (KOKSIJDE (BEL-AF, BE) observed 1455 UTC 18 February 2019
Temperature: 10.0°C (50°F)
Dewpoint: 7.0°C (45°F) [RH = 82%]
Pressure (altimeter): 29.97 inches Hg (1015.0 mb)
Winds: from the WNW (300 degrees) at 12 MPH (10 knots; 5.1 m/s)
Visibility: 6 or more miles (10+ km)
Ceiling: 2400 feet AGL
Clouds: broken clouds at 2400 feet AGL
broken clouds at 22000 feet AGL
Weather: no significant weather observed at this time

METAR text: EBFN 181438Z 29010KT 9999 BKN024 BKN220 11/07 Q1015 WHT WHT TEMPO BLU
Conditions at: EBFN (KOKSIJDE (BEL-AF, BE) observed 1438 UTC 18 February 2019
Temperature: 11.0°C (52°F)
Dewpoint: 7.0°C (45°F) [RH = 76%]
Pressure (altimeter): 29.97 inches Hg (1015.0 mb)
Winds: from the WNW (290 degrees) at 12 MPH (10 knots; 5.1 m/s)
Visibility: 6 or more miles (10+ km)
Ceiling: 2400 feet AGL
Clouds: broken clouds at 2400 feet AGL
broken clouds at 22000 feet AGL
Weather: no significant weather observed at this time

METAR text: EBFN 181425Z 23007KT 9999 BKN024 BKN220 13/08 Q1015 WHT WHT
Conditions at: EBFN (KOKSIJDE (BEL-AF, BE) observed 1425 UTC 18 February 2019
Temperature: 13.0°C (55°F)
Dewpoint: 8.0°C (46°F) [RH = 72%]
Pressure (altimeter): 29.97 inches Hg (1015.0 mb)
Winds: from the SW (230 degrees) at 8 MPH (7 knots; 3.6 m/s)
Visibility: 6 or more miles (10+ km)
Ceiling: 2400 feet AGL
Clouds: broken clouds at 2400 feet AGL
broken clouds at 22000 feet AGL
Weather: no significant weather observed at this time

METAR text: EBFN 181403Z 20006KT 9999 SCT024 BKN220 13/07 Q1015 WHT WHT
Conditions at: EBFN (KOKSIJDE (BEL-AF, BE) observed 1403 UTC 18 February 2019
Temperature: 13.0°C (55°F)
Dewpoint: 7.0°C (45°F) [RH = 67%]
Pressure (altimeter): 29.97 inches Hg (1015.0 mb)
Winds: from the SSW (200 degrees) at 7 MPH (6 knots; 3.1 m/s)
Visibility: 6 or more miles (10+ km)
Ceiling: 22000 feet AGL
Clouds: scattered clouds at 2400 feet AGL
broken clouds at 22000 feet AGL
Weather: no significant weather observed at this time

METAR text: EBFN 181355Z 20006KT 9999 FEW024 BKN220 14/08 Q1015 BLU BLU BECMG WHT
Conditions at: EBFN (KOKSIJDE (BEL-AF, BE) observed 1355 UTC 18 February 2019
Temperature: 14.0°C (57°F)
Dewpoint: 8.0°C (46°F) [RH = 67%]
Pressure (altimeter): 29.97 inches Hg (1015.0 mb)
Winds: from the SSW (200 degrees) at 7 MPH (6 knots; 3.1 m/s)
Visibility: 6 or more miles (10+ km)
Ceiling: 22000 feet AGL
Clouds: few clouds at 2400 feet AGL
broken clouds at 22000 feet AGL
Weather: no significant weather observed at this time

METAR text: EBFN 181352Z 20007KT 9999 FEW024 BKN220 13/07 Q1015 BLU BLU BECMG WHT
Conditions at: EBFN (KOKSIJDE (BEL-AF, BE) observed 1352 UTC 18 February 2019
Temperature: 13.0°C (55°F)
Dewpoint: 7.0°C (45°F) [RH = 67%]
Pressure (altimeter): 29.97 inches Hg (1015.0 mb)
Winds: from the SSW (200 degrees) at 8 MPH (7 knots; 3.6 m/s)
Visibility: 6 or more miles (10+ km)
Ceiling: 22000 feet AGL
Clouds: few clouds at 2400 feet AGL
broken clouds at 22000 feet AGL
Weather: no significant weather observed at this time

METAR text: EBFN 181325Z 21007KT 9999 FEW020 BKN220 13/08 Q1015 BLU BLU
Conditions at: EBFN (KOKSIJDE (BEL-AF, BE) observed 1325 UTC 18 February 2019
Temperature: 13.0°C (55°F)
Dewpoint: 8.0°C (46°F) [RH = 72%]
Pressure (altimeter): 29.97 inches Hg (1015.0 mb)
Winds: from the SSW (210 degrees) at 8 MPH (7 knots; 3.6 m/s)
Visibility: 6 or more miles (10+ km)
Ceiling: 22000 feet AGL
Clouds: few clouds at 2000 feet AGL
broken clouds at 22000 feet AGL
Weather: no significant weather observed at this time

METAR text: EBFN 181255Z 20009KT 9999 FEW020 BKN220 13/08 Q1015 BLU BLU
Conditions at: EBFN (KOKSIJDE (BEL-AF, BE) observed 1255 UTC 18 February 2019
Temperature: 13.0°C (55°F)
Dewpoint: 8.0°C (46°F) [RH = 72%]
Pressure (altimeter): 29.97 inches Hg (1015.0 mb)
Winds: from the SSW (200 degrees) at 10 MPH (9 knots; 4.6 m/s)
Visibility: 6 or more miles (10+ km)
Ceiling: 22000 feet AGL
Clouds: few clouds at 2000 feet AGL
broken clouds at 22000 feet AGL
Weather: no significant weather observed at this time

METAR text: EBFN 181225Z 19007KT 9999 FEW020 BKN220 13/08 Q1016 BLU BLU
Conditions at: EBFN (KOKSIJDE (BEL-AF, BE) observed 1225 UTC 18 February 2019
Temperature: 13.0°C (55°F)
Dewpoint: 8.0°C (46°F) [RH = 72%]
Pressure (altimeter): 30.00 inches Hg (1016.0 mb)
Winds: from the S (190 degrees) at 8 MPH (7 knots; 3.6 m/s)
Visibility: 6 or more miles (10+ km)
Ceiling: 22000 feet AGL
Clouds: few clouds at 2000 feet AGL
broken clouds at 22000 feet AGL
Weather: no significant weather observed at this time

METAR text: EBFN 181155Z 20006KT 9999 FEW020 BKN220 12/07 Q1016 BLU BLU
Conditions at: EBFN (KOKSIJDE (BEL-AF, BE) observed 1155 UTC 18 February 2019
Temperature: 12.0°C (54°F)
Dewpoint: 7.0°C (45°F) [RH = 71%]
Pressure (altimeter): 30.00 inches Hg (1016.0 mb)
Winds: from the SSW (200 degrees) at 7 MPH (6 knots; 3.1 m/s)
Visibility: 6 or more miles (10+ km)
Ceiling: 22000 feet AGL
Clouds: few clouds at 2000 feet AGL
broken clouds at 22000 feet AGL
Weather: no significant weather observed at this time

METAR text: EBFN 181125Z 22007KT 9999 FEW020 BKN220 12/07 Q1017 BLU BLU
Conditions at: EBFN (KOKSIJDE (BEL-AF, BE) observed 1125 UTC 18 February 2019
Temperature: 12.0°C (54°F)
Dewpoint: 7.0°C (45°F) [RH = 71%]
Pressure (altimeter): 30.03 inches Hg (1017.0 mb)
Winds: from the SW (220 degrees) at 8 MPH (7 knots; 3.6 m/s)
Visibility: 6 or more miles (10+ km)
Ceiling: 22000 feet AGL
Clouds: few clouds at 2000 feet AGL
broken clouds at 22000 feet AGL
Weather: no significant weather observed at this time

METAR text: EBFN 181055Z 22006KT 9999 FEW020 BKN220 11/07 Q1017 BLU BLU
Conditions at: EBFN (KOKSIJDE (BEL-AF, BE) observed 1055 UTC 18 February 2019
Temperature: 11.0°C (52°F)
Dewpoint: 7.0°C (45°F) [RH = 76%]
Pressure (altimeter): 30.03 inches Hg (1017.0 mb)
Winds: from the SW (220 degrees) at 7 MPH (6 knots; 3.1 m/s)
Visibility: 6 or more miles (10+ km)
Ceiling: 22000 feet AGL
Clouds: few clouds at 2000 feet AGL
broken clouds at 22000 feet AGL
Weather: no significant weather observed at this time

METAR text: EBFN 181025Z 20005KT 9999 FEW050 BKN220 10/06 Q1017 BLU BLU
Conditions at: EBFN (KOKSIJDE (BEL-AF, BE) observed 1025 UTC 18 February 2019
Temperature: 10.0°C (50°F)
Dewpoint: 6.0°C (43°F) [RH = 76%]
Pressure (altimeter): 30.03 inches Hg (1017.0 mb)
Winds: from the SSW (200 degrees) at 6 MPH (5 knots; 2.6 m/s)
Visibility: 6 or more miles (10+ km)
Ceiling: 22000 feet AGL
Clouds: few clouds at 5000 feet AGL
broken clouds at 22000 feet AGL
Weather: no significant weather observed at this time

METAR text: EBFN 181021Z 20005KT 9999 FEW050 BKN220 10/06 Q1017 BLU BLU
Conditions at: EBFN (KOKSIJDE (BEL-AF, BE) observed 1021 UTC 18 February 2019
Temperature: 10.0°C (50°F)
Dewpoint: 6.0°C (43°F) [RH = 76%]
Pressure (altimeter): 30.03 inches Hg (1017.0 mb)
Winds: from the SSW (200 degrees) at 6 MPH (5 knots; 2.6 m/s)
Visibility: 6 or more miles (10+ km)
Ceiling: 22000 feet AGL
Clouds: few clouds at 5000 feet AGL
broken clouds at 22000 feet AGL
Weather: no significant weather observed at this time

METAR text: EBFN 180955Z 21006KT 9999 FEW050 BKN220 09/05 Q1017 BLU BLU TEMPO WHT
Conditions at: EBFN (KOKSIJDE (BEL-AF, BE) observed 0955 UTC 18 February 2019
Temperature: 9.0°C (48°F)
Dewpoint: 5.0°C (41°F) [RH = 76%]
Pressure (altimeter): 30.03 inches Hg (1017.0 mb)
Winds: from the SSW (210 degrees) at 7 MPH (6 knots; 3.1 m/s)
Visibility: 6 or more miles (10+ km)
Ceiling: 22000 feet AGL
Clouds: few clouds at 5000 feet AGL
broken clouds at 22000 feet AGL
Weather: no significant weather observed at this time

METAR text: EBFN 180925Z 21006KT 9999 FEW050 BKN220 08/04 Q1017 BLU BLU TEMPO WHT
Conditions at: EBFN (KOKSIJDE (BEL-AF, BE) observed 0925 UTC 18 February 2019
Temperature: 8.0°C (46°F)
Dewpoint: 4.0°C (39°F) [RH = 76%]
Pressure (altimeter): 30.03 inches Hg (1017.0 mb)
Winds: from the SSW (210 degrees) at 7 MPH (6 knots; 3.1 m/s)
Visibility: 6 or more miles (10+ km)
Ceiling: 22000 feet AGL
Clouds: few clouds at 5000 feet AGL
broken clouds at 22000 feet AGL
Weather: no significant weather observed at this time

METAR text: EBFN 180855Z 20008KT 9999 FEW050 BKN220 07/04 Q1018 BLU BLU TEMPO WHT
Conditions at: EBFN (KOKSIJDE (BEL-AF, BE) observed 0855 UTC 18 February 2019
Temperature: 7.0°C (45°F)
Dewpoint: 4.0°C (39°F) [RH = 81%]
Pressure (altimeter): 30.06 inches Hg (1018.0 mb)
Winds: from the SSW (200 degrees) at 9 MPH (8 knots; 4.1 m/s)
Visibility: 6 or more miles (10+ km)
Ceiling: 22000 feet AGL
Clouds: few clouds at 5000 feet AGL
broken clouds at 22000 feet AGL
Weather: no significant weather observed at this time

METAR text: EBFN 180825Z 20006KT 9999 FEW050 BKN220 05/03 Q1018 BLU BLU TEMPO WHT
Conditions at: EBFN (KOKSIJDE (BEL-AF, BE) observed 0825 UTC 18 February 2019
Temperature: 5.0°C (41°F)
Dewpoint: 3.0°C (37°F) [RH = 87%]
Pressure (altimeter): 30.06 inches Hg (1018.0 mb)
Winds: from the SSW (200 degrees) at 7 MPH (6 knots; 3.1 m/s)
Visibility: 6 or more miles (10+ km)
Ceiling: 22000 feet AGL
Clouds: few clouds at 5000 feet AGL
broken clouds at 22000 feet AGL
Weather: no significant weather observed at this time

METAR text: EBFN 180755Z 20003KT 9999 FEW050 BKN220 05/02 Q1018 BLU BLU TEMPO WHT
Conditions at: EBFN (KOKSIJDE (BEL-AF, BE) observed 0755 UTC 18 February 2019
Temperature: 5.0°C (41°F)
Dewpoint: 2.0°C (36°F) [RH = 81%]
Pressure (altimeter): 30.06 inches Hg (1018.0 mb)
Winds: from the SSW (200 degrees) at 3 MPH (3 knots; 1.5 m/s)
Visibility: 6 or more miles (10+ km)
Ceiling: 22000 feet AGL
Clouds: few clouds at 5000 feet AGL
broken clouds at 22000 feet AGL
Weather: no significant weather observed at this time

METAR text: EBFN 180725Z 19005KT 9999 FEW050 BKN220 03/01 Q1017 BLU BLU TEMPO WHT
Conditions at: EBFN (KOKSIJDE (BEL-AF, BE) observed 0725 UTC 18 February 2019
Temperature: 3.0°C (37°F)
Dewpoint: 1.0°C (34°F) [RH = 87%]
Pressure (altimeter): 30.03 inches Hg (1017.0 mb)
Winds: from the S (190 degrees) at 6 MPH (5 knots; 2.6 m/s)
Visibility: 6 or more miles (10+ km)
Ceiling: 22000 feet AGL
Clouds: few clouds at 5000 feet AGL
broken clouds at 22000 feet AGL
Weather: no significant weather observed at this time

METAR text: EBFN 180655Z VRB02KT 9999 FEW050 BKN220 03/01 Q1017 BLU BLU TEMPO WHT
Conditions at: EBFN (KOKSIJDE (BEL-AF, BE) observed 0655 UTC 18 February 2019
Temperature: 3.0°C (37°F)
Dewpoint: 1.0°C (34°F) [RH = 87%]
Pressure (altimeter): 30.03 inches Hg (1017.0 mb)
Winds: variable direction winds at 2 MPH (2 knots; 1.0 m/s)
Visibility: 6 or more miles (10+ km)
Ceiling: 22000 feet AGL
Clouds: few clouds at 5000 feet AGL
broken clouds at 22000 feet AGL
Weather: no significant weather observed at this time

METAR text: EBFN 180625Z 14004KT 9999 FEW050 BKN220 03/01 Q1017 BLU BLU TEMPO WHT
Conditions at: EBFN (KOKSIJDE (BEL-AF, BE) observed 0625 UTC 18 February 2019
Temperature: 3.0°C (37°F)
Dewpoint: 1.0°C (34°F) [RH = 87%]
Pressure (altimeter): 30.03 inches Hg (1017.0 mb)
Winds: from the SE (140 degrees) at 5 MPH (4 knots; 2.1 m/s)
Visibility: 6 or more miles (10+ km)
Ceiling: 22000 feet AGL
Clouds: few clouds at 5000 feet AGL
broken clouds at 22000 feet AGL
Weather: no significant weather observed at this time

METAR text: EBFN 180555Z 14003KT 9999 FEW050 BKN220 04/01 Q1017 BLU BLU TEMPO WHT
Conditions at: EBFN (KOKSIJDE (BEL-AF, BE) observed 0555 UTC 18 February 2019
Temperature: 4.0°C (39°F)
Dewpoint: 1.0°C (34°F) [RH = 81%]
Pressure (altimeter): 30.03 inches Hg (1017.0 mb)
Winds: from the SE (140 degrees) at 3 MPH (3 knots; 1.5 m/s)
Visibility: 6 or more miles (10+ km)
Ceiling: 22000 feet AGL
Clouds: few clouds at 5000 feet AGL
broken clouds at 22000 feet AGL
Weather: no significant weather observed at this time

METAR text: EBFN 180554Z VRB02KT 9999 FEW050 BKN220 04/01 Q1017 BLU BLU TEMPO WHT
Conditions at: EBFN (KOKSIJDE (BEL-AF, BE) observed 0554 UTC 18 February 2019
Temperature: 4.0°C (39°F)
Dewpoint: 1.0°C (34°F) [RH = 81%]
Pressure (altimeter): 30.03 inches Hg (1017.0 mb)
Winds: variable direction winds at 2 MPH (2 knots; 1.0 m/s)
Visibility: 6 or more miles (10+ km)
Ceiling: 22000 feet AGL
Clouds: few clouds at 5000 feet AGL
broken clouds at 22000 feet AGL
Weather: no significant weather observed at this time

METAR text: EBFN 180525Z AUTO VRB01KT 9999 NCD 05/02 Q1017 BLU
Conditions at: EBFN (KOKSIJDE (BEL-AF, BE) observed 0525 UTC 18 February 2019
Temperature: 5.0°C (41°F)
Dewpoint: 2.0°C (36°F) [RH = 81%]
Pressure (altimeter): 30.03 inches Hg (1017.0 mb)
Winds: variable direction winds at 1 MPH (1 knots; 0.5 m/s)
Visibility: 6 or more miles (10+ km)
Ceiling: at least 12,000 feet AGL
Clouds: sky clear below 12,000 feet AGL
Weather: no significant weather observed at this time

METAR text: EBFN 180455Z AUTO 15003KT 9999 NCD 04/01 Q1017 BLU
Conditions at: EBFN (KOKSIJDE (BEL-AF, BE) observed 0455 UTC 18 February 2019
Temperature: 4.0°C (39°F)
Dewpoint: 1.0°C (34°F) [RH = 81%]
Pressure (altimeter): 30.03 inches Hg (1017.0 mb)
Winds: from the SSE (150 degrees) at 3 MPH (3 knots; 1.5 m/s)
Visibility: 6 or more miles (10+ km)
Ceiling: at least 12,000 feet AGL
Clouds: sky clear below 12,000 feet AGL
Weather: no significant weather observed at this time

METAR text: EBFN 180449Z AUTO VRB02KT 7000 NCD 04/01 Q1017 WHT
Conditions at: EBFN (KOKSIJDE (BEL-AF, BE) observed 0449 UTC 18 February 2019
Temperature: 4.0°C (39°F)
Dewpoint: 1.0°C (34°F) [RH = 81%]
Pressure (altimeter): 30.03 inches Hg (1017.0 mb)
Winds: variable direction winds at 2 MPH (2 knots; 1.0 m/s)
Visibility: 4 miles ( 7 km)
Ceiling: at least 12,000 feet AGL
Clouds: sky clear below 12,000 feet AGL
Weather: no significant weather observed at this time

METAR text: EBFN 180443Z AUTO 17003KT 8000 NCD 04/01 Q1017 BLU
Conditions at: EBFN (KOKSIJDE (BEL-AF, BE) observed 0443 UTC 18 February 2019
Temperature: 4.0°C (39°F)
Dewpoint: 1.0°C (34°F) [RH = 81%]
Pressure (altimeter): 30.03 inches Hg (1017.0 mb)
Winds: from the S (170 degrees) at 3 MPH (3 knots; 1.5 m/s)
Visibility: 5 miles ( 8 km)
Ceiling: at least 12,000 feet AGL
Clouds: sky clear below 12,000 feet AGL
Weather: no significant weather observed at this time

METAR text: EBFN 180425Z AUTO VRB01KT 8000 NCD 03/01 Q1017 BLU
Conditions at: EBFN (KOKSIJDE (BEL-AF, BE) observed 0425 UTC 18 February 2019
Temperature: 3.0°C (37°F)
Dewpoint: 1.0°C (34°F) [RH = 87%]
Pressure (altimeter): 30.03 inches Hg (1017.0 mb)
Winds: variable direction winds at 1 MPH (1 knots; 0.5 m/s)
Visibility: 5 miles ( 8 km)
Ceiling: at least 12,000 feet AGL
Clouds: sky clear below 12,000 feet AGL
Weather: no significant weather observed at this time

METAR text: EBFN 180409Z AUTO VRB01KT 7000 NCD 04/01 Q1018 WHT
Conditions at: EBFN (KOKSIJDE (BEL-AF, BE) observed 0409 UTC 18 February 2019
Temperature: 4.0°C (39°F)
Dewpoint: 1.0°C (34°F) [RH = 81%]
Pressure (altimeter): 30.06 inches Hg (1018.0 mb)
Winds: variable direction winds at 1 MPH (1 knots; 0.5 m/s)
Visibility: 4 miles ( 7 km)
Ceiling: at least 12,000 feet AGL
Clouds: sky clear below 12,000 feet AGL
Weather: no significant weather observed at this time

METAR text: EBFN 180355Z AUTO VRB01KT 9000 NCD 04/01 Q1018 BLU
Conditions at: EBFN (KOKSIJDE (BEL-AF, BE) observed 0355 UTC 18 February 2019
Temperature: 4.0°C (39°F)
Dewpoint: 1.0°C (34°F) [RH = 81%]
Pressure (altimeter): 30.06 inches Hg (1018.0 mb)
Winds: variable direction winds at 1 MPH (1 knots; 0.5 m/s)
Visibility: 6 miles ( 9 km)
Ceiling: at least 12,000 feet AGL
Clouds: sky clear below 12,000 feet AGL
Weather: no significant weather observed at this time

METAR text: EBFN 180349Z AUTO VRB01KT 7000 NCD 04/01 Q1018 WHT
Conditions at: EBFN (KOKSIJDE (BEL-AF, BE) observed 0349 UTC 18 February 2019
Temperature: 4.0°C (39°F)
Dewpoint: 1.0°C (34°F) [RH = 81%]
Pressure (altimeter): 30.06 inches Hg (1018.0 mb)
Winds: variable direction winds at 1 MPH (1 knots; 0.5 m/s)
Visibility: 4 miles ( 7 km)
Ceiling: at least 12,000 feet AGL
Clouds: sky clear below 12,000 feet AGL
Weather: no significant weather observed at this time

METAR text: EBFN 180325Z AUTO VRB02KT 9999 NCD 05/02 Q1018 BLU
Conditions at: EBFN (KOKSIJDE (BEL-AF, BE) observed 0325 UTC 18 February 2019
Temperature: 5.0°C (41°F)
Dewpoint: 2.0°C (36°F) [RH = 81%]
Pressure (altimeter): 30.06 inches Hg (1018.0 mb)
Winds: variable direction winds at 2 MPH (2 knots; 1.0 m/s)
Visibility: 6 or more miles (10+ km)
Ceiling: at least 12,000 feet AGL
Clouds: sky clear below 12,000 feet AGL
Weather: no significant weather observed at this time

METAR text: EBFN 180255Z AUTO 20004KT 9999 NCD 05/02 Q1018 BLU
Conditions at: EBFN (KOKSIJDE (BEL-AF, BE) observed 0255 UTC 18 February 2019
Temperature: 5.0°C (41°F)
Dewpoint: 2.0°C (36°F) [RH = 81%]
Pressure (altimeter): 30.06 inches Hg (1018.0 mb)
Winds: from the SSW (200 degrees) at 5 MPH (4 knots; 2.1 m/s)
Visibility: 6 or more miles (10+ km)
Ceiling: at least 12,000 feet AGL
Clouds: sky clear below 12,000 feet AGL
Weather: no significant weather observed at this time

METAR text: EBFN 180225Z AUTO 20005KT 9999 NCD 05/02 Q1018 BLU
Conditions at: EBFN (KOKSIJDE (BEL-AF, BE) observed 0225 UTC 18 February 2019
Temperature: 5.0°C (41°F)
Dewpoint: 2.0°C (36°F) [RH = 81%]
Pressure (altimeter): 30.06 inches Hg (1018.0 mb)
Winds: from the SSW (200 degrees) at 6 MPH (5 knots; 2.6 m/s)
Visibility: 6 or more miles (10+ km)
Ceiling: at least 12,000 feet AGL
Clouds: sky clear below 12,000 feet AGL
Weather: no significant weather observed at this time

METAR text: EBFN 180155Z AUTO 18005KT 8000 NCD 04/02 Q1018 BLU
Conditions at: EBFN (KOKSIJDE (BEL-AF, BE) observed 0155 UTC 18 February 2019
Temperature: 4.0°C (39°F)
Dewpoint: 2.0°C (36°F) [RH = 87%]
Pressure (altimeter): 30.06 inches Hg (1018.0 mb)
Winds: from the S (180 degrees) at 6 MPH (5 knots; 2.6 m/s)
Visibility: 5 miles ( 8 km)
Ceiling: at least 12,000 feet AGL
Clouds: sky clear below 12,000 feet AGL
Weather: no significant weather observed at this time

METAR text: EBFN 180133Z AUTO 19004KT 7000 NCD 04/02 Q1018 WHT
Conditions at: EBFN (KOKSIJDE (BEL-AF, BE) observed 0133 UTC 18 February 2019
Temperature: 4.0°C (39°F)
Dewpoint: 2.0°C (36°F) [RH = 87%]
Pressure (altimeter): 30.06 inches Hg (1018.0 mb)
Winds: from the S (190 degrees) at 5 MPH (4 knots; 2.1 m/s)
Visibility: 4 miles ( 7 km)
Ceiling: at least 12,000 feet AGL
Clouds: sky clear below 12,000 feet AGL
Weather: no significant weather observed at this time

METAR text: EBFN 180125Z AUTO 19004KT 8000 NCD 04/02 Q1018 BLU
Conditions at: EBFN (KOKSIJDE (BEL-AF, BE) observed 0125 UTC 18 February 2019
Temperature: 4.0°C (39°F)
Dewpoint: 2.0°C (36°F) [RH = 87%]
Pressure (altimeter): 30.06 inches Hg (1018.0 mb)
Winds: from the S (190 degrees) at 5 MPH (4 knots; 2.1 m/s)
Visibility: 5 miles ( 8 km)
Ceiling: at least 12,000 feet AGL
Clouds: sky clear below 12,000 feet AGL
Weather: no significant weather observed at this time

METAR text: EBFN 180055Z AUTO 22004KT 9999 NCD 05/02 Q1018 BLU
Conditions at: EBFN (KOKSIJDE (BEL-AF, BE) observed 0055 UTC 18 February 2019
Temperature: 5.0°C (41°F)
Dewpoint: 2.0°C (36°F) [RH = 81%]
Pressure (altimeter): 30.06 inches Hg (1018.0 mb)
Winds: from the SW (220 degrees) at 5 MPH (4 knots; 2.1 m/s)
Visibility: 6 or more miles (10+ km)
Ceiling: at least 12,000 feet AGL
Clouds: sky clear below 12,000 feet AGL
Weather: no significant weather observed at this time

METAR text: EBFN 180025Z AUTO 21003KT 9999 NCD 06/02 Q1018 BLU
Conditions at: EBFN (KOKSIJDE (BEL-AF, BE) observed 0025 UTC 18 February 2019
Temperature: 6.0°C (43°F)
Dewpoint: 2.0°C (36°F) [RH = 75%]
Pressure (altimeter): 30.06 inches Hg (1018.0 mb)
Winds: from the SSW (210 degrees) at 3 MPH (3 knots; 1.5 m/s)
Visibility: 6 or more miles (10+ km)
Ceiling: at least 12,000 feet AGL
Clouds: sky clear below 12,000 feet AGL
Weather: no significant weather observed at this time

METAR text: EBFN 172355Z AUTO 21004KT 9999 NCD 06/02 Q1018 BLU
Conditions at: EBFN (KOKSIJDE (BEL-AF, BE) observed 2355 UTC 17 February 2019
Temperature: 6.0°C (43°F)
Dewpoint: 2.0°C (36°F) [RH = 75%]
Pressure (altimeter): 30.06 inches Hg (1018.0 mb)
Winds: from the SSW (210 degrees) at 5 MPH (4 knots; 2.1 m/s)
Visibility: 6 or more miles (10+ km)
Ceiling: at least 12,000 feet AGL
Clouds: sky clear below 12,000 feet AGL
Weather: no significant weather observed at this time

METAR text: EBFN 172325Z AUTO 21003KT 9999 NCD 07/02 Q1018 BLU
Conditions at: EBFN (KOKSIJDE (BEL-AF, BE) observed 2325 UTC 17 February 2019
Temperature: 7.0°C (45°F)
Dewpoint: 2.0°C (36°F) [RH = 70%]
Pressure (altimeter): 30.06 inches Hg (1018.0 mb)
Winds: from the SSW (210 degrees) at 3 MPH (3 knots; 1.5 m/s)
Visibility: 6 or more miles (10+ km)
Ceiling: at least 12,000 feet AGL
Clouds: sky clear below 12,000 feet AGL
Weather: no significant weather observed at this time

METAR text: EBFN 172255Z AUTO VRB01KT 9999 NCD 07/03 Q1018 BLU
Conditions at: EBFN (KOKSIJDE (BEL-AF, BE) observed 2255 UTC 17 February 2019
Temperature: 7.0°C (45°F)
Dewpoint: 3.0°C (37°F) [RH = 76%]
Pressure (altimeter): 30.06 inches Hg (1018.0 mb)
Winds: variable direction winds at 1 MPH (1 knots; 0.5 m/s)
Visibility: 6 or more miles (10+ km)
Ceiling: at least 12,000 feet AGL
Clouds: sky clear below 12,000 feet AGL
Weather: no significant weather observed at this time

METAR text: EBFN 172225Z AUTO 15003KT 9999 NCD 07/03 Q1018 BLU
Conditions at: EBFN (KOKSIJDE (BEL-AF, BE) observed 2225 UTC 17 February 2019
Temperature: 7.0°C (45°F)
Dewpoint: 3.0°C (37°F) [RH = 76%]
Pressure (altimeter): 30.06 inches Hg (1018.0 mb)
Winds: from the SSE (150 degrees) at 3 MPH (3 knots; 1.5 m/s)
Visibility: 6 or more miles (10+ km)
Ceiling: at least 12,000 feet AGL
Clouds: sky clear below 12,000 feet AGL
Weather: no significant weather observed at this time

METAR text: EBFN 172155Z AUTO VRB01KT 9999 NCD 08/03 Q1018 BLU
Conditions at: EBFN (KOKSIJDE (BEL-AF, BE) observed 2155 UTC 17 February 2019
Temperature: 8.0°C (46°F)
Dewpoint: 3.0°C (37°F) [RH = 71%]
Pressure (altimeter): 30.06 inches Hg (1018.0 mb)
Winds: variable direction winds at 1 MPH (1 knots; 0.5 m/s)
Visibility: 6 or more miles (10+ km)
Ceiling: at least 12,000 feet AGL
Clouds: sky clear below 12,000 feet AGL
Weather: no significant weather observed at this time

METAR text: EBFN 172125Z AUTO VRB02KT 9999 NCD 08/03 Q1018 BLU
Conditions at: EBFN (KOKSIJDE (BEL-AF, BE) observed 2125 UTC 17 February 2019
Temperature: 8.0°C (46°F)
Dewpoint: 3.0°C (37°F) [RH = 71%]
Pressure (altimeter): 30.06 inches Hg (1018.0 mb)
Winds: variable direction winds at 2 MPH (2 knots; 1.0 m/s)
Visibility: 6 or more miles (10+ km)
Ceiling: at least 12,000 feet AGL
Clouds: sky clear below 12,000 feet AGL
Weather: no significant weather observed at this time

METAR text: EBFN 172055Z AUTO 18003KT 9999 NCD 09/03 Q1018 BLU
Conditions at: EBFN (KOKSIJDE (BEL-AF, BE) observed 2055 UTC 17 February 2019
Temperature: 9.0°C (48°F)
Dewpoint: 3.0°C (37°F) [RH = 66%]
Pressure (altimeter): 30.06 inches Hg (1018.0 mb)
Winds: from the S (180 degrees) at 3 MPH (3 knots; 1.5 m/s)
Visibility: 6 or more miles (10+ km)
Ceiling: at least 12,000 feet AGL
Clouds: sky clear below 12,000 feet AGL
Weather: no significant weather observed at this time

METAR text: EBFN 172025Z AUTO 17005KT 9999 NCD 07/03 Q1018 BLU
Conditions at: EBFN (KOKSIJDE (BEL-AF, BE) observed 2025 UTC 17 February 2019
Temperature: 7.0°C (45°F)
Dewpoint: 3.0°C (37°F) [RH = 76%]
Pressure (altimeter): 30.06 inches Hg (1018.0 mb)
Winds: from the S (170 degrees) at 6 MPH (5 knots; 2.6 m/s)
Visibility: 6 or more miles (10+ km)
Ceiling: at least 12,000 feet AGL
Clouds: sky clear below 12,000 feet AGL
Weather: no significant weather observed at this time

METAR text: EBFN 171955Z AUTO VRB02KT 9999 NCD 08/04 Q1018 BLU
Conditions at: EBFN (KOKSIJDE (BEL-AF, BE) observed 1955 UTC 17 February 2019
Temperature: 8.0°C (46°F)
Dewpoint: 4.0°C (39°F) [RH = 76%]
Pressure (altimeter): 30.06 inches Hg (1018.0 mb)
Winds: variable direction winds at 2 MPH (2 knots; 1.0 m/s)
Visibility: 6 or more miles (10+ km)
Ceiling: at least 12,000 feet AGL
Clouds: sky clear below 12,000 feet AGL
Weather: no significant weather observed at this time

METAR text: EBFN 171925Z AUTO 18006KT 9999 NCD 09/04 Q1018 BLU
Conditions at: EBFN (KOKSIJDE (BEL-AF, BE) observed 1925 UTC 17 February 2019
Temperature: 9.0°C (48°F)
Dewpoint: 4.0°C (39°F) [RH = 71%]
Pressure (altimeter): 30.06 inches Hg (1018.0 mb)
Winds: from the S (180 degrees) at 7 MPH (6 knots; 3.1 m/s)
Visibility: 6 or more miles (10+ km)
Ceiling: at least 12,000 feet AGL
Clouds: sky clear below 12,000 feet AGL
Weather: no significant weather observed at this time

METAR text: EBFN 171855Z AUTO 19006KT 9999 NCD 09/04 Q1018 BLU
Conditions at: EBFN (KOKSIJDE (BEL-AF, BE) observed 1855 UTC 17 February 2019
Temperature: 9.0°C (48°F)
Dewpoint: 4.0°C (39°F) [RH = 71%]
Pressure (altimeter): 30.06 inches Hg (1018.0 mb)
Winds: from the S (190 degrees) at 7 MPH (6 knots; 3.1 m/s)
Visibility: 6 or more miles (10+ km)
Ceiling: at least 12,000 feet AGL
Clouds: sky clear below 12,000 feet AGL
Weather: no significant weather observed at this time

METAR text: EBFN 171825Z AUTO 20005KT 9999 NCD 09/04 Q1018 BLU
Conditions at: EBFN (KOKSIJDE (BEL-AF, BE) observed 1825 UTC 17 February 2019
Temperature: 9.0°C (48°F)
Dewpoint: 4.0°C (39°F) [RH = 71%]
Pressure (altimeter): 30.06 inches Hg (1018.0 mb)
Winds: from the SSW (200 degrees) at 6 MPH (5 knots; 2.6 m/s)
Visibility: 6 or more miles (10+ km)
Ceiling: at least 12,000 feet AGL
Clouds: sky clear below 12,000 feet AGL
Weather: no significant weather observed at this time

METAR text: EBFN 171755Z AUTO 20006KT 9999 NCD 10/04 Q1018 BLU
Conditions at: EBFN (KOKSIJDE (BEL-AF, BE) observed 1755 UTC 17 February 2019
Temperature: 10.0°C (50°F)
Dewpoint: 4.0°C (39°F) [RH = 66%]
Pressure (altimeter): 30.06 inches Hg (1018.0 mb)
Winds: from the SSW (200 degrees) at 7 MPH (6 knots; 3.1 m/s)
Visibility: 6 or more miles (10+ km)
Ceiling: at least 12,000 feet AGL
Clouds: sky clear below 12,000 feet AGL
Weather: no significant weather observed at this time

METAR text: EBFN 171725Z AUTO 20006KT 9999 NCD 10/05 Q1018 BLU
Conditions at: EBFN (KOKSIJDE (BEL-AF, BE) observed 1725 UTC 17 February 2019
Temperature: 10.0°C (50°F)
Dewpoint: 5.0°C (41°F) [RH = 71%]
Pressure (altimeter): 30.06 inches Hg (1018.0 mb)
Winds: from the SSW (200 degrees) at 7 MPH (6 knots; 3.1 m/s)
Visibility: 6 or more miles (10+ km)
Ceiling: at least 12,000 feet AGL
Clouds: sky clear below 12,000 feet AGL
Weather: no significant weather observed at this time

METAR text: EBFN 171655Z AUTO 19008KT 9999 NCD 11/05 Q1017 BLU
Conditions at: EBFN (KOKSIJDE (BEL-AF, BE) observed 1655 UTC 17 February 2019
Temperature: 11.0°C (52°F)
Dewpoint: 5.0°C (41°F) [RH = 66%]
Pressure (altimeter): 30.03 inches Hg (1017.0 mb)
Winds: from the S (190 degrees) at 9 MPH (8 knots; 4.1 m/s)
Visibility: 6 or more miles (10+ km)
Ceiling: at least 12,000 feet AGL
Clouds: sky clear below 12,000 feet AGL
Weather: no significant weather observed at this time

METAR text: EBFN 171625Z AUTO 18008KT 9999 NCD 13/05 Q1017 BLU
Conditions at: EBFN (KOKSIJDE (BEL-AF, BE) observed 1625 UTC 17 February 2019
Temperature: 13.0°C (55°F)
Dewpoint: 5.0°C (41°F) [RH = 58%]
Pressure (altimeter): 30.03 inches Hg (1017.0 mb)
Winds: from the S (180 degrees) at 9 MPH (8 knots; 4.1 m/s)
Visibility: 6 or more miles (10+ km)
Ceiling: at least 12,000 feet AGL
Clouds: sky clear below 12,000 feet AGL
Weather: no significant weather observed at this time